Time;durP1;ratioP1;P1;durP2;ratioP2;P2;SDS_P1;SDS_P2;PMS_P1;PMS_P2;Temp;Humidity;BMP_temperature;BMP_pressure;BME280_temperature;BME280_humidity;BME280_pressure;Samples;Min_cycle;Max_cycle;Signal;HPM_P1;HPM_P2
2022/11/13 00:00:51;;;;;;;40.00;29.67;;;;;;;9.90;100.00;101643.47;5050680;28;20497;-71
2022/11/13 00:03:16;;;;;;;41.90;27.75;;;;;;;10.04;100.00;101687.53;5050675;28;20028;-72
2022/11/13 00:05:42;;;;;;;40.63;30.02;;;;;;;9.83;100.00;101665.47;5048971;28;20028;-72
2022/11/13 00:08:07;;;;;;;41.85;28.95;;;;;;;9.82;100.00;101620.63;5048908;28;20037;-71
2022/11/13 00:10:33;;;;;;;44.72;31.70;;;;;;;10.07;100.00;101695.16;5050532;28;20032;-71
2022/11/13 00:12:58;;;;;;;47.47;34.75;;;;;;;9.59;100.00;101628.16;5050385;28;20025;-71
2022/11/13 00:15:23;;;;;;;45.40;32.55;;;;;;;9.72;100.00;101646.84;5049448;28;20040;-71
2022/11/13 00:17:49;;;;;;;44.88;32.28;;;;;;;10.04;100.00;101701.06;5050693;28;20492;-71
2022/11/13 00:20:14;;;;;;;43.70;32.60;;;;;;;9.77;100.00;101672.22;5050667;28;20025;-71
2022/11/13 00:22:41;;;;;;;42.42;31.60;;;;;;;10.12;100.00;101693.53;5049854;28;20427;-72
2022/11/13 00:25:07;;;;;;;51.25;36.85;;;;;;;9.75;100.00;101634.13;5049104;28;20211;-71
2022/11/13 00:27:32;;;;;;;59.92;42.33;;;;;;;9.79;100.00;101642.59;5050206;28;20128;-71
2022/11/13 00:29:57;;;;;;;55.70;39.67;;;;;;;10.16;100.00;101678.25;5051135;28;20065;-71
2022/11/13 00:32:23;;;;;;;48.55;36.22;;;;;;;10.13;100.00;101687.56;5050321;28;20494;-71
2022/11/13 00:34:48;;;;;;;47.28;34.70;;;;;;;10.17;100.00;101681.66;5049347;28;20103;-73
2022/11/13 00:37:14;;;;;;;47.90;34.42;;;;;;;9.76;100.00;101587.59;5050189;28;20087;-71
2022/11/13 00:39:39;;;;;;;45.80;32.92;;;;;;;10.41;100.00;101679.13;5050532;28;20029;-71
2022/11/13 00:42:04;;;;;;;48.05;34.22;;;;;;;10.10;100.00;101665.53;5050464;28;20033;-72
2022/11/13 00:44:30;;;;;;;65.90;44.88;;;;;;;10.30;100.00;101691.00;5036215;28;20373;-70
2022/11/13 00:46:55;;;;;;;86.95;58.42;;;;;;;9.79;100.00;101594.34;5028850;28;20120;-71
2022/11/13 00:49:21;;;;;;;67.80;45.13;;;;;;;9.79;100.00;101615.50;5030411;28;20542;-71
2022/11/13 00:51:46;;;;;;;58.55;40.88;;;;;;;9.57;100.00;101580.75;5029788;28;20021;-71
2022/11/13 00:54:12;;;;;;;48.10;32.17;;;;;;;10.34;100.00;101665.56;5038823;28;20419;-72
2022/11/13 00:56:37;;;;;;;41.53;30.42;;;;;;;10.11;100.00;101646.06;5050086;28;20021;-72
2022/11/13 00:59:02;;;;;;;36.58;26.25;;;;;;;10.03;100.00;101610.47;5051523;28;20060;-71
2022/11/13 01:01:28;;;;;;;26.50;20.70;;;;;;;10.15;100.00;101617.28;5035731;28;20028;-71
2022/11/13 01:03:53;;;;;;;29.55;23.85;;;;;;;10.51;100.00;101682.53;5053879;28;20051;-71
2022/11/13 01:06:22;;;;;;;35.40;25.40;;;;;;;10.02;100.00;101631.63;5053551;28;20404;-71
2022/11/13 01:08:48;;;;;;;32.17;24.30;;;;;;;10.17;100.00;101635.91;5036052;28;20028;-73
2022/11/13 01:11:19;;;;;;;31.42;24.38;;;;;;;10.09;100.00;101635.88;5053709;28;20388;-72
2022/11/13 01:13:47;;;;;;;32.28;24.70;;;;;;;10.38;100.00;101682.50;5053609;28;20115;-71
2022/11/13 01:16:15;;;;;;;31.50;24.35;;;;;;;10.25;100.00;101617.28;5035677;28;20028;-71
2022/11/13 01:18:42;;;;;;;32.22;23.48;;;;;;;10.66;100.00;101685.91;5035684;28;20021;-72
2022/11/13 01:21:25;;;;;;;30.65;24.02;;;;;;;10.67;100.00;101668.94;5053525;28;20100;-73
2022/11/13 01:23:51;;;;;;;27.15;21.27;;;;;;;10.33;100.00;101618.13;5035751;28;20051;-72
2022/11/13 01:26:22;;;;;;;27.98;21.17;;;;;;;10.54;100.00;101670.66;5053567;28;20072;-72
2022/11/13 01:28:48;;;;;;;26.35;20.90;;;;;;;10.32;100.00;101631.66;5035544;28;20033;-71
2022/11/13 01:31:17;;;;;;;24.50;19.27;;;;;;;10.39;100.00;101640.16;5035027;28;20056;-71
2022/11/13 01:33:44;;;;;;;23.58;17.58;;;;;;;10.23;100.00;101624.06;5052847;28;20037;-71
2022/11/13 01:36:14;;;;;;;24.13;17.42;;;;;;;10.28;100.00;101611.34;5035584;28;20463;-71
2022/11/13 01:38:39;;;;;;;23.52;17.48;;;;;;;10.19;100.00;101622.38;5053316;28;20025;-73
2022/11/13 01:41:06;;;;;;;22.42;16.25;;;;;;;10.21;100.00;101622.34;5035365;28;20036;-74
2022/11/13 01:43:35;;;;;;;20.95;15.52;;;;;;;10.71;100.00;101701.16;5052958;28;20108;-71
2022/11/13 01:46:03;;;;;;;18.88;14.90;;;;;;;10.67;100.00;101697.78;5051945;28;20032;-71
2022/11/13 01:48:37;;;;;;;19.02;14.02;;;;;;;10.61;100.00;101696.94;5072870;28;20138;-70
2022/11/13 01:51:12;;;;;;;19.80;13.35;;;;;;;10.68;100.00;101704.56;5073269;28;20025;-70
2022/11/13 01:53:41;;;;;;;18.67;12.25;;;;;;;10.71;100.00;101691.00;5054735;28;20112;-71
2022/11/13 01:56:07;;;;;;;16.33;12.07;;;;;;;10.67;100.00;101696.94;5072546;28;20120;-71
2022/11/13 01:58:33;;;;;;;16.40;11.93;;;;;;;10.35;100.00;101621.50;5072597;28;20119;-70
2022/11/13 02:00:58;;;;;;;15.15;11.63;;;;;;;10.76;100.00;101696.91;5072551;28;20024;-70
2022/11/13 02:03:24;;;;;;;18.88;12.65;;;;;;;10.77;100.00;101698.63;5054572;28;20032;-71
2022/11/13 02:05:50;;;;;;;20.00;13.52;;;;;;;10.84;100.00;101701.16;5072891;28;20081;-70
2022/11/13 02:08:16;;;;;;;16.83;12.48;;;;;;;10.66;100.00;101660.47;5054224;28;20110;-70
2022/11/13 02:10:42;;;;;;;15.82;10.80;;;;;;;10.51;100.00;101660.50;5072058;28;20113;-70
2022/11/13 02:13:09;;;;;;;18.08;12.50;;;;;;;10.68;100.00;101684.19;5072192;28;20032;-70
2022/11/13 02:15:35;;;;;;;17.42;13.57;;;;;;;10.29;100.00;101636.78;5050793;28;20179;-70
2022/11/13 02:18:02;;;;;;;19.08;13.75;;;;;;;10.58;100.00;101694.41;5051924;28;20554;-71
2022/11/13 02:20:33;;;;;;;18.90;14.32;;;;;;;10.56;100.00;101699.47;5050481;28;20024;-70
2022/11/13 02:23:18;;;;;;;18.55;14.70;;;;;;;10.68;100.00;101690.97;5052834;28;20033;-70
2022/11/13 02:25:46;;;;;;;15.63;11.80;;;;;;;10.03;100.00;101571.50;5052212;28;20072;-70
2022/11/13 02:28:11;;;;;;;15.00;12.35;;;;;;;10.43;100.00;101614.72;5051867;28;20025;-71
2022/11/13 02:30:37;;;;;;;15.07;10.90;;;;;;;10.75;100.00;101687.59;5038380;28;20403;-70
2022/11/13 02:33:21;;;;;;;16.55;11.60;;;;;;;10.41;100.00;101620.66;5054336;28;20119;-70
2022/11/13 02:35:47;;;;;;;17.20;12.60;;;;;;;10.80;100.00;101674.00;5072032;28;20025;-72
2022/11/13 02:38:12;;;;;;;21.52;14.05;;;;;;;10.75;100.00;101672.34;5071507;28;20039;-71
2022/11/13 02:40:38;;;;;;;20.33;13.63;;;;;;;10.61;100.00;101623.16;5071873;28;20061;-70
2022/11/13 02:43:03;;;;;;;20.33;14.07;;;;;;;10.55;100.00;101613.00;5071746;28;20024;-72
2022/11/13 02:45:29;;;;;;;19.33;14.68;;;;;;;10.85;100.00;101654.50;5053360;28;20503;-71
2022/11/13 02:47:54;;;;;;;22.17;13.40;;;;;;;10.88;100.00;101679.94;5053571;28;20166;-70
2022/11/13 02:50:20;;;;;;;18.67;12.63;;;;;;;10.93;100.00;101667.22;5071875;28;20098;-72
2022/11/13 02:52:45;;;;;;;26.45;19.38;;;;;;;10.95;100.00;101666.34;5053811;28;20550;-71
2022/11/13 02:55:11;;;;;;;26.40;18.35;;;;;;;10.56;100.00;101613.00;5071611;28;20045;-71
2022/11/13 02:57:36;;;;;;;19.75;12.93;;;;;;;10.29;100.00;101559.66;5071337;28;20101;-71
2022/11/13 03:00:04;;;;;;;18.42;13.35;;;;;;;11.05;100.00;101682.47;5053234;28;20159;-72
2022/11/13 03:02:29;;;;;;;17.50;12.65;;;;;;;10.84;100.00;101644.31;5071426;28;20025;-71
2022/11/13 03:04:54;;;;;;;20.55;13.82;;;;;;;10.70;100.00;101601.09;5071680;28;20035;-70
2022/11/13 03:07:20;;;;;;;18.88;12.88;;;;;;;10.87;100.00;101622.28;5071118;28;20036;-71
2022/11/13 03:09:45;;;;;;;19.23;13.43;;;;;;;10.95;100.00;101638.34;5071189;28;20459;-71
2022/11/13 03:12:11;;;;;;;22.98;13.65;;;;;;;10.36;100.00;101569.81;5053245;28;20024;-72
2022/11/13 03:14:36;;;;;;;17.65;12.10;;;;;;;10.99;100.00;101670.56;5071563;28;20025;-71
2022/11/13 03:17:02;;;;;;;17.35;11.65;;;;;;;11.07;100.00;101671.41;5053078;28;20174;-71
2022/11/13 03:19:27;;;;;;;15.15;12.02;;;;;;;10.84;100.00;101670.63;5085906;28;20060;-71
2022/11/13 03:21:53;;;;;;;16.80;12.13;;;;;;;10.61;100.00;101652.00;5052801;28;20028;-70
2022/11/13 03:24:18;;;;;;;16.25;12.07;;;;;;;10.62;100.00;101663.03;5070355;28;20410;-72
2022/11/13 03:26:44;;;;;;;13.70;10.88;;;;;;;10.30;100.00;101627.47;5053235;28;20032;-71
2022/11/13 03:29:10;;;;;;;15.45;11.68;;;;;;;10.60;100.00;101685.06;5070488;28;20024;-71
2022/11/13 03:31:35;;;;;;;14.13;11.93;;;;;;;10.19;100.00;101616.44;5061855;28;20037;-72
2022/11/13 03:34:01;;;;;;;16.23;11.18;;;;;;;10.77;100.00;101673.19;5051200;28;20094;-73
2022/11/13 03:36:26;;;;;;;16.00;11.85;;;;;;;10.68;100.00;101683.34;5033951;28;20052;-75
2022/11/13 03:38:52;;;;;;;17.83;12.20;;;;;;;10.57;100.00;101673.19;5066313;28;20037;-76
2022/11/13 03:41:18;;;;;;;18.42;12.60;;;;;;;10.28;100.00;101599.47;5053053;28;20035;-76
2022/11/13 03:43:43;;;;;;;17.90;13.00;;;;;;;10.40;100.00;101617.25;5053839;28;20040;-77
2022/11/13 03:46:09;;;;;;;18.83;13.98;;;;;;;10.85;100.00;101666.38;5071605;28;20089;-77
2022/11/13 03:48:34;;;;;;;20.30;14.00;;;;;;;10.30;100.00;101602.88;5072198;28;20117;-78
2022/11/13 03:51:00;;;;;;;25.95;14.45;;;;;;;10.85;100.00;101692.69;5071615;28;20415;-76
2022/11/13 03:53:25;;;;;;;20.58;14.43;;;;;;;10.86;100.00;101693.50;5052730;28;20461;-77
2022/11/13 03:55:51;;;;;;;25.52;14.60;;;;;;;10.69;100.00;101657.06;5054491;28;20036;-77
2022/11/13 03:58:17;;;;;;;19.88;13.75;;;;;;;10.45;100.00;101630.84;5053805;28;20074;-77
2022/11/13 04:00:44;;;;;;;18.92;12.50;;;;;;;10.41;100.00;101613.88;5071615;28;20482;-79
2022/11/13 04:03:09;;;;;;;16.85;11.68;;;;;;;10.77;100.00;101684.22;5071223;28;20115;-73
2022/11/13 04:05:35;;;;;;;16.35;11.07;;;;;;;10.54;100.00;101624.03;5052719;28;20029;-72
2022/11/13 04:08:00;;;;;;;13.88;10.77;;;;;;;10.18;100.00;101567.28;5052747;28;20395;-71
2022/11/13 04:10:26;;;;;;;15.32;10.68;;;;;;;10.62;100.00;101679.13;5070085;28;20557;-71
2022/11/13 04:12:51;;;;;;;16.67;10.68;;;;;;;10.73;100.00;101684.19;5070739;28;20032;-72
2022/11/13 04:15:17;;;;;;;12.85;9.88;;;;;;;10.33;100.00;101629.97;5052587;28;20425;-72
2022/11/13 04:17:42;;;;;;;14.68;10.48;;;;;;;10.16;100.00;101602.00;5052062;28;20078;-70
2022/11/13 04:20:08;;;;;;;15.82;11.00;;;;;;;10.10;100.00;101609.63;5070272;28;20039;-71
2022/11/13 04:22:34;;;;;;;15.75;11.43;;;;;;;10.67;100.00;101685.06;5070233;28;20117;-75
2022/11/13 04:24:59;;;;;;;13.60;9.93;;;;;;;10.23;100.00;101618.97;5067694;28;20055;-70
2022/11/13 04:27:25;;;;;;;20.75;10.40;;;;;;;11.60;100.00;101671.22;5069466;28;20553;-68
2022/11/13 04:29:50;;;;;;;19.88;10.77;;;;;;;11.79;100.00;101661.78;5073643;28;20294;-70
2022/11/13 04:32:15;;;;;;;14.23;10.05;;;;;;;11.48;100.00;101663.63;5064504;28;20537;-74
2022/11/13 04:34:41;;;;;;;20.35;10.48;;;;;;;11.13;100.00;101609.47;5088777;28;20520;-70
2022/11/13 04:37:06;;;;;;;14.65;10.38;;;;;;;10.83;100.00;101683.34;5054803;28;20135;-69
2022/11/13 04:39:32;;;;;;;14.27;10.50;;;;;;;10.30;100.00;101622.38;5053530;28;20025;-70
2022/11/13 04:44:41;;;;;;;13.85;10.70;;;;;;;10.37;100.00;101664.72;5053244;28;20040;-70
2022/11/13 04:47:07;;;;;;;18.33;11.18;;;;;;;10.13;100.00;101627.44;5035528;28;20029;-70
2022/11/13 04:49:32;;;;;;;12.30;10.20;;;;;;;10.50;100.00;101673.22;5053234;28;20040;-70
2022/11/13 04:51:58;;;;;;;17.65;13.13;;;;;;;10.39;100.00;101675.75;5035476;28;20029;-70
2022/11/13 04:54:23;;;;;;;13.30;11.13;;;;;;;10.05;100.00;101624.00;5053741;28;20049;-70
2022/11/13 04:56:50;;;;;;;17.23;12.70;;;;;;;10.46;100.00;101695.22;5036123;28;20040;-70
2022/11/13 04:59:15;;;;;;;16.25;11.93;;;;;;;10.07;100.00;101613.84;5035484;28;20025;-69
2022/11/13 05:01:41;;;;;;;13.82;11.57;;;;;;;9.48;100.00;101552.84;5035806;28;20029;-69
2022/11/13 05:04:09;;;;;;;13.38;10.68;;;;;;;10.33;100.00;101670.66;5053143;28;20032;-70
2022/11/13 05:06:34;;;;;;;13.00;10.63;;;;;;;10.21;100.00;101675.72;5035173;28;20055;-70
2022/11/13 05:09:00;;;;;;;13.95;11.55;;;;;;;10.18;100.00;101653.69;5035721;28;20037;-69
2022/11/13 05:11:25;;;;;;;15.88;12.98;;;;;;;10.07;100.00;101662.13;5053230;28;20023;-72
2022/11/13 05:13:51;;;;;;;24.13;16.45;;;;;;;9.83;100.00;101606.19;5035716;28;20483;-69
2022/11/13 05:16:16;;;;;;;21.33;15.73;;;;;;;10.45;100.00;101666.44;5053695;28;20025;-70
2022/11/13 05:18:42;;;;;;;20.70;14.73;;;;;;;10.41;100.00;101686.75;5051554;28;20040;-69
2022/11/13 05:21:08;;;;;;;16.55;13.25;;;;;;;10.37;100.00;101678.28;5053024;28;20028;-69
2022/11/13 05:23:34;;;;;;;16.17;12.15;;;;;;;10.46;100.00;101691.00;5053000;28;20422;-70
2022/11/13 05:26:02;;;;;;;17.92;11.90;;;;;;;10.24;100.00;101620.66;5035112;28;20029;-69
2022/11/13 05:28:27;;;;;;;15.07;10.48;;;;;;;10.42;100.00;101684.22;5052899;28;20061;-70
2022/11/13 05:30:52;;;;;;;15.35;11.38;;;;;;;10.50;100.00;101683.38;5053059;28;20075;-72
2022/11/13 05:33:18;;;;;;;13.55;11.30;;;;;;;9.97;100.00;101618.09;5035063;28;20064;-70
2022/11/13 05:35:43;;;;;;;14.57;11.73;;;;;;;10.39;100.00;101699.47;5035014;28;20033;-70
2022/11/13 05:38:09;;;;;;;16.67;11.95;;;;;;;11.00;100.00;101625.63;5052801;28;20025;-69
2022/11/13 05:40:34;;;;;;;13.57;11.00;;;;;;;11.17;100.00;101706.16;5035131;28;20040;-70
2022/11/13 05:43:00;;;;;;;14.57;11.68;;;;;;;11.60;100.00;101645.75;5035113;28;20400;-69
2022/11/13 05:45:25;;;;;;;18.35;13.10;;;;;;;11.66;100.00;101711.97;5033984;28;20032;-70
2022/11/13 05:47:50;;;;;;;21.63;14.10;;;;;;;10.81;100.00;101664.69;5052595;28;20028;-70
2022/11/13 05:50:16;;;;;;;20.63;14.35;;;;;;;11.10;100.00;101719.78;5035174;28;20411;-69
2022/11/13 05:52:41;;;;;;;21.50;14.20;;;;;;;10.89;100.00;101727.44;5034706;28;20112;-69
2022/11/13 05:55:07;;;;;;;17.58;13.70;;;;;;;11.00;100.00;101709.59;5052545;28;20045;-69
2022/11/13 05:57:33;;;;;;;17.83;13.25;;;;;;;11.19;100.00;101734.19;5034676;28;20037;-69
2022/11/13 05:59:58;;;;;;;19.77;12.82;;;;;;;13.18;100.00;101739.78;5052593;28;20055;-70
2022/11/13 06:02:23;;;;;;;15.57;12.38;;;;;;;14.02;100.00;101761.78;5034647;28;20411;-69
2022/11/13 06:04:49;;;;;;;14.55;11.25;;;;;;;13.85;100.00;101687.84;5052010;28;20037;-69
2022/11/13 06:07:14;;;;;;;12.05;10.10;;;;;;;14.15;100.00;101724.94;5052147;28;20136;-70
2022/11/13 06:09:40;;;;;;;10.70;9.55;;;;;;;14.92;100.00;101763.84;5034243;28;20032;-69
2022/11/13 06:12:05;;;;;;;10.77;9.32;;;;;;;14.49;100.00;101772.22;5051979;28;20407;-69
2022/11/13 06:14:31;;;;;;;11.55;9.40;;;;;;;13.85;100.00;101695.53;5033708;28;20033;-70
2022/11/13 06:16:56;;;;;;;11.50;9.38;;;;;;;12.71;100.00;101718.09;5067390;28;20507;-70
2022/11/13 06:19:22;;;;;;;11.73;9.73;;;;;;;12.33;100.00;101748.13;5034592;28;20087;-69
2022/11/13 06:21:48;;;;;;;11.00;9.65;;;;;;;11.87;100.00;101706.78;5034490;28;20033;-69
2022/11/13 06:24:13;;;;;;;13.15;11.15;;;;;;;11.45;100.00;101643.25;5033686;28;20059;-69
2022/11/13 06:26:39;;;;;;;14.98;13.38;;;;;;;11.70;100.00;101725.56;5034192;28;20423;-71
2022/11/13 06:29:06;;;;;;;12.05;10.32;;;;;;;11.83;100.00;101715.28;5050442;28;20395;-70
2022/11/13 06:31:35;;;;;;;13.73;10.57;;;;;;;12.12;100.00;101744.00;5033265;28;20029;-70
2022/11/13 06:34:01;;;;;;;10.32;9.23;;;;;;;12.23;100.00;101751.59;5050409;28;20609;-70
2022/11/13 06:36:32;;;;;;;10.68;8.48;;;;;;;13.23;100.00;101749.09;5034248;28;20053;-69
2022/11/13 06:38:58;;;;;;;15.93;14.23;;;;;;;12.76;100.00;101659.31;5033769;28;20483;-70
2022/11/13 06:41:26;;;;;;;20.00;17.02;;;;;;;13.09;100.00;101768.84;5051595;28;20478;-70
2022/11/13 06:43:51;;;;;;;19.73;16.42;;;;;;;12.38;100.00;101748.13;5051628;28;20029;-68
2022/11/13 06:46:19;;;;;;;21.77;16.23;;;;;;;13.88;100.00;101745.78;5050380;28;20406;-68
2022/11/13 06:48:45;;;;;;;19.98;16.27;;;;;;;14.05;100.00;101776.22;5051797;28;20048;-68
2022/11/13 06:51:14;;;;;;;18.50;15.82;;;;;;;13.62;100.00;101764.00;5033591;28;20040;-70
2022/11/13 06:53:40;;;;;;;17.25;14.10;;;;;;;12.82;100.00;101679.69;5051349;28;20071;-70
2022/11/13 06:56:06;;;;;;;17.73;14.48;;;;;;;13.65;100.00;101756.28;5033298;28;20041;-70
2022/11/13 06:58:32;;;;;;;21.30;16.25;;;;;;;12.74;100.00;101684.00;5051037;28;20025;-69
2022/11/13 07:01:03;;;;;;;20.05;17.90;;;;;;;13.00;100.00;101712.69;5033152;28;20419;-69
2022/11/13 07:03:28;;;;;;;30.70;26.25;;;;;;;13.08;100.00;101741.59;5033872;28;20480;-69
2022/11/13 07:05:54;;;;;;;16.50;14.27;;;;;;;12.86;100.00;101753.69;5051224;28;20041;-68
2022/11/13 07:08:19;;;;;;;16.13;14.43;;;;;;;12.97;100.00;101735.72;5051134;28;20033;-69
2022/11/13 07:10:53;;;;;;;16.95;14.75;;;;;;;13.22;100.00;101681.00;5033658;28;20032;-69
2022/11/13 07:13:19;;;;;;;18.02;15.32;;;;;;;13.60;100.00;101752.94;5050880;28;20083;-69
2022/11/13 07:15:44;;;;;;;17.17;14.65;;;;;;;13.09;100.00;101651.38;5051045;28;20036;-69
2022/11/13 07:18:10;;;;;;;20.42;16.23;;;;;;;13.71;100.00;101724.69;5033056;28;20113;-69
2022/11/13 07:20:35;;;;;;;20.50;16.35;;;;;;;13.81;100.00;101741.59;5032991;28;20025;-69
2022/11/13 07:23:02;;;;;;;17.95;14.32;;;;;;;12.98;100.00;101622.50;5033498;28;20025;-71
2022/11/13 07:25:28;;;;;;;16.92;13.73;;;;;;;13.76;100.00;101749.34;5032583;28;20087;-69
2022/11/13 07:27:54;;;;;;;18.90;14.50;;;;;;;13.49;100.00;101683.22;5032644;28;20021;-68
2022/11/13 07:30:19;;;;;;;19.05;13.82;;;;;;;14.04;100.00;101754.09;5050548;28;20055;-68
2022/11/13 07:32:45;;;;;;;15.13;12.93;;;;;;;14.11;100.00;101740.34;5032638;28;20436;-68
2022/11/13 07:35:11;;;;;;;13.02;11.10;;;;;;;14.06;100.00;101732.75;5032860;28;20039;-68
2022/11/13 07:37:37;;;;;;;15.07;11.18;;;;;;;14.32;100.00;101737.53;5032839;28;20033;-69
2022/11/13 07:40:03;;;;;;;14.18;10.45;;;;;;;14.22;100.00;101744.44;5032759;28;20075;-71
2022/11/13 07:42:29;;;;;;;12.00;9.23;;;;;;;14.18;100.00;101730.00;5050349;28;20032;-69
2022/11/13 07:44:55;;;;;;;10.18;8.60;;;;;;;13.93;100.00;101700.53;5050636;28;20033;-69
2022/11/13 07:47:20;;;;;;;12.70;8.43;;;;;;;13.65;100.00;101664.28;5033096;28;20116;-69
2022/11/13 07:49:46;;;;;;;12.43;8.10;;;;;;;13.72;100.00;101681.22;5032821;28;20025;-69
2022/11/13 07:52:11;;;;;;;11.43;9.10;;;;;;;14.00;100.00;101681.69;5050346;28;20041;-69
2022/11/13 07:54:37;;;;;;;15.60;10.45;;;;;;;14.26;100.00;101751.19;5051033;28;20386;-69
2022/11/13 07:57:02;;;;;;;11.93;8.40;;;;;;;13.70;100.00;101636.09;5050195;28;20475;-69
2022/11/13 07:59:27;;;;;;;10.05;8.40;;;;;;;13.98;100.00;101647.63;5050676;28;20033;-69
2022/11/13 08:01:53;;;;;;;13.57;10.70;;;;;;;14.63;100.00;101725.94;5050273;28;20029;-69
2022/11/13 08:04:18;;;;;;;9.57;6.57;;;;;;;14.48;100.00;101751.78;5032343;28;20037;-69
2022/11/13 08:06:43;;;;;;;7.78;6.47;;;;;;;14.66;100.00;101733.53;5050351;28;20174;-70
2022/11/13 08:09:09;;;;;;;9.68;6.30;;;;;;;14.64;100.00;101671.28;5049762;28;20025;-69
2022/11/13 08:11:35;;;;;;;11.02;7.13;;;;;;;14.26;100.00;101674.44;5049997;28;20480;-71
2022/11/13 08:14:00;;;;;;;8.13;6.88;;;;;;;14.51;100.00;101741.47;5049107;28;20410;-69
2022/11/13 08:16:26;;;;;;;7.68;6.53;;;;;;;14.17;100.00;101687.38;5050094;28;20033;-70
2022/11/13 08:18:52;;;;;;;7.28;6.53;;;;;;;13.93;100.00;101685.19;5050146;28;20029;-69
2022/11/13 08:21:17;;;;;;;9.27;6.50;;;;;;;14.41;100.00;101740.78;5048999;28;20129;-70
2022/11/13 08:23:43;;;;;;;9.52;6.40;;;;;;;14.39;100.00;101749.34;5050417;28;20036;-69
2022/11/13 08:26:09;;;;;;;7.95;5.90;;;;;;;14.06;100.00;101644.94;5032175;28;20033;-69
2022/11/13 08:28:35;;;;;;;6.65;5.43;;;;;;;14.44;100.00;101727.94;5032013;28;20025;-69
2022/11/13 08:31:01;;;;;;;8.85;5.82;;;;;;;14.22;100.00;101735.94;5032479;28;20398;-69
2022/11/13 08:33:27;;;;;;;9.50;6.80;;;;;;;13.88;100.00;101687.78;5050151;28;20056;-69
2022/11/13 08:35:59;;;;;;;8.98;6.97;;;;;;;14.05;100.00;101717.41;5032644;28;20052;-69
2022/11/13 08:38:24;;;;;;;13.00;8.13;;;;;;;14.25;100.00;101738.44;5050135;28;20037;-69
2022/11/13 08:40:50;;;;;;;13.00;8.07;;;;;;;13.96;100.00;101674.94;5049827;28;20578;-70
2022/11/13 08:43:16;;;;;;;10.02;7.15;;;;;;;13.87;100.00;101681.00;5049994;28;20025;-70
2022/11/13 08:45:45;;;;;;;9.77;7.93;;;;;;;14.63;100.00;101731.06;5049776;28;20056;-69
2022/11/13 08:48:10;;;;;;;8.27;7.10;;;;;;;14.86;100.00;101725.53;5049960;28;20495;-69
2022/11/13 08:50:37;;;;;;;9.65;7.43;;;;;;;14.82;100.00;101677.78;5031945;28;20032;-70
2022/11/13 08:53:02;;;;;;;9.10;7.07;;;;;;;15.22;100.00;101714.63;5031802;28;20037;-69
2022/11/13 08:55:28;;;;;;;9.57;7.47;;;;;;;14.87;100.00;101704.19;5031283;28;20056;-69
2022/11/13 08:57:56;;;;;;;9.40;7.57;;;;;;;14.99;100.00;101712.50;5050205;28;20029;-69
2022/11/13 09:00:22;;;;;;;7.85;6.40;;;;;;;15.21;100.00;101715.50;5032131;28;20053;-69
2022/11/13 09:02:52;;;;;;;9.02;6.30;;;;;;;14.60;100.00;101642.34;5050133;28;20479;-69
2022/11/13 09:05:18;;;;;;;9.50;6.35;;;;;;;14.58;100.00;101656.88;5049602;28;20032;-69
2022/11/13 09:07:43;;;;;;;8.07;6.47;;;;;;;14.98;100.00;101715.06;5049999;28;20112;-69
2022/11/13 09:10:09;;;;;;;9.82;6.57;;;;;;;14.52;100.00;101631.38;5031505;28;20033;-71
2022/11/13 09:12:34;;;;;;;7.50;6.32;;;;;;;15.24;100.00;101703.47;5031870;28;20029;-69
2022/11/13 09:15:00;;;;;;;10.88;6.80;;;;;;;15.14;100.00;101652.44;5031920;28;20473;-70
2022/11/13 09:17:25;;;;;;;9.45;6.82;;;;;;;15.21;100.00;101689.88;5031970;28;20036;-69
2022/11/13 09:19:51;;;;;;;7.43;6.53;;;;;;;15.26;100.00;101694.03;5050069;28;20033;-70
2022/11/13 09:22:22;;;;;;;9.45;6.60;;;;;;;15.40;100.00;101688.63;5035089;28;20025;-70
2022/11/13 09:24:47;;;;;;;8.38;6.30;;;;;;;14.75;100.00;101642.09;5052978;28;20057;-69
2022/11/13 09:27:13;;;;;;;8.60;6.97;;;;;;;15.83;100.00;101697.13;5053073;28;20072;-70
2022/11/13 09:29:39;;;;;;;8.95;7.25;;;;;;;15.00;100.00;101624.53;5053715;28;20032;-70
2022/11/13 09:32:04;;;;;;;9.57;7.03;;;;;;;15.30;100.00;101697.38;5053451;28;20033;-70
2022/11/13 09:34:32;;;;;;;11.45;6.75;;;;;;;15.22;100.00;101648.00;5034983;28;20072;-70
2022/11/13 09:36:58;;;;;;;9.07;6.90;;;;;;;15.53;100.00;101697.78;5035067;28;20560;-70
2022/11/13 09:39:23;;;;;;;10.15;6.60;;;;;;;15.25;100.00;101686.38;5034864;28;20041;-70
2022/11/13 09:41:58;;;;;;;6.93;5.55;;;;;;;15.24;100.00;101698.34;5053067;28;20486;-70
2022/11/13 09:44:30;;;;;;;8.38;6.60;;;;;;;15.47;100.00;101691.06;5053071;28;20025;-70
2022/11/13 09:47:19;;;;;;;8.00;5.90;;;;;;;15.69;100.00;101632.47;5052749;28;20021;-69
2022/11/13 09:50:22;;;;;;;7.63;6.00;;;;;;;15.93;100.00;101667.84;5053069;28;20527;-70
2022/11/13 09:52:48;;;;;;;8.73;6.30;;;;;;;15.60;100.00;101661.75;5034874;28;20025;-70
2022/11/13 09:55:21;;;;;;;8.32;6.18;;;;;;;15.15;100.00;101603.69;5052395;28;20116;-70
2022/11/13 09:57:51;;;;;;;7.10;5.85;;;;;;;15.63;100.00;101633.47;5052671;28;20488;-71
2022/11/13 10:00:21;;;;;;;7.35;5.93;;;;;;;15.87;100.00;101672.25;5034750;28;20028;-71
2022/11/13 10:03:05;;;;;;;10.10;6.78;;;;;;;16.07;100.00;101654.69;5034705;28;20111;-71
2022/11/13 10:05:52;;;;;;;7.30;6.15;;;;;;;16.11;100.00;101659.72;5034176;28;20028;-71
2022/11/13 10:08:37;;;;;;;7.63;6.13;;;;;;;15.72;100.00;101603.38;5034374;28;20071;-70
2022/11/13 10:11:29;;;;;;;7.72;6.32;;;;;;;16.04;100.00;101655.63;5034454;28;20484;-72
2022/11/13 10:14:16;;;;;;;10.32;6.32;;;;;;;15.95;100.00;101590.84;5051158;28;20021;-72
2022/11/13 10:16:53;;;;;;;7.15;6.45;;;;;;;16.39;100.00;101652.19;5034473;28;20032;-72
2022/11/13 10:19:37;;;;;;;8.38;5.70;;;;;;;15.94;100.00;101640.47;5052377;28;20033;-72
2022/11/13 10:22:29;;;;;;;8.90;5.32;;;;;;;16.67;100.00;101642.94;5034584;28;20411;-71
2022/11/13 10:25:03;;;;;;;7.88;5.68;;;;;;;16.72;100.00;101640.25;5034174;28;20033;-72
2022/11/13 10:27:29;;;;;;;6.07;5.10;;;;;;;16.32;100.00;101615.56;5067419;28;20045;-72
2022/11/13 10:29:55;;;;;;;5.47;4.43;;;;;;;16.34;100.00;101636.06;5034633;28;20043;-71
2022/11/13 10:32:25;;;;;;;4.88;4.30;;;;;;;16.60;100.00;101620.84;5051720;28;20032;-72
2022/11/13 10:34:59;;;;;;;7.93;5.35;;;;;;;16.61;100.00;101626.84;5052207;28;20469;-72
2022/11/13 10:37:42;;;;;;;8.45;5.80;;;;;;;16.58;100.00;101619.22;5052668;28;20036;-69
2022/11/13 10:40:07;;;;;;;6.70;5.93;;;;;;;16.76;100.00;101601.59;5033919;28;20124;-72
2022/11/13 10:42:40;;;;;;;6.20;5.60;;;;;;;16.48;100.00;101546.66;5033904;28;20474;-71
2022/11/13 10:45:18;;;;;;;5.80;5.20;;;;;;;16.68;100.00;101546.19;5051731;28;20407;-71
2022/11/13 10:47:50;;;;;;;7.05;6.10;;;;;;;16.98;100.00;101619.81;5052148;28;20033;-71
2022/11/13 10:50:27;;;;;;;9.50;5.68;;;;;;;16.47;100.00;101570.69;5051830;28;20041;-72
2022/11/13 10:52:54;;;;;;;7.85;5.95;;;;;;;17.31;100.00;101617.13;5034106;28;20170;-71
2022/11/13 10:55:34;;;;;;;6.72;5.60;;;;;;;17.92;100.00;101600.72;5051482;28;20060;-70
2022/11/13 10:58:02;;;;;;;8.05;5.90;;;;;;;16.46;100.00;101535.59;5033644;28;20029;-73
2022/11/13 11:00:35;;;;;;;16.02;12.35;;;;;;;16.72;100.00;101486.13;5066126;28;20060;-71
2022/11/13 11:03:01;;;;;;;8.10;6.25;;;;;;;17.41;100.00;101588.59;5033231;28;20352;-70
2022/11/13 11:05:27;;;;;;;9.25;7.43;;;;;;;17.03;100.00;101534.03;5051490;28;20114;-72
2022/11/13 11:07:55;;;;;;;8.07;5.82;;;;;;;17.41;100.00;101588.59;5051442;28;20036;-71
2022/11/13 11:10:35;;;;;;;8.00;5.90;;;;;;;16.83;100.00;101597.13;5051319;28;20029;-69